createdAt,value
2023-05-14T00:01:02.433Z,95040.91
2023-05-14T00:03:04.191Z,95043.38
2023-05-14T00:05:06.180Z,95043.81
2023-05-14T00:07:07.663Z,95047.59
2023-05-14T00:09:09.532Z,95040.47
2023-05-14T00:11:11.113Z,95032.47
2023-05-14T00:13:12.558Z,95035.56
2023-05-14T00:15:14.079Z,95027.56
2023-05-14T00:17:15.811Z,95019.69
2023-05-14T00:19:17.366Z,95024.00
2023-05-14T00:21:19.417Z,95024.72
2023-05-14T00:23:21.398Z,95023.38
2023-05-14T00:25:22.875Z,95018.78
2023-05-14T00:27:24.299Z,95013.53
2023-05-14T00:29:25.785Z,95013.53
2023-05-14T00:31:27.280Z,95018.09
2023-05-14T00:33:28.806Z,95024.31
2023-05-14T00:35:30.448Z,95015.25
2023-05-14T00:37:31.976Z,95011.78
2023-05-14T00:39:33.796Z,95015.13
2023-05-14T00:41:35.209Z,95017.41
2023-05-14T00:43:36.700Z,95009.69
2023-05-14T00:45:38.639Z,95004.84
2023-05-14T00:47:40.280Z,95013.13
2023-05-14T00:49:42.004Z,95015.78
2023-05-14T00:51:46.835Z,95022.34
2023-05-14T00:53:48.902Z,95011.59
2023-05-14T00:55:50.615Z,95003.22
2023-05-14T00:57:52.145Z,95007.22
2023-05-14T00:59:54.008Z,95006.19
2023-05-14T01:01:55.530Z,95001.28
2023-05-14T01:03:58.101Z,95000.50
2023-05-14T01:06:07.169Z,95001.38
2023-05-14T01:08:14.234Z,95005.53
2023-05-14T01:10:17.666Z,95004.53
2023-05-14T01:12:19.860Z,95005.66
2023-05-14T01:14:22.807Z,94994.59
2023-05-14T01:16:24.811Z,94997.50
2023-05-14T01:18:26.381Z,94991.09
2023-05-14T01:20:27.845Z,95002.09
2023-05-14T01:22:29.388Z,95013.47
2023-05-14T01:24:30.817Z,95014.75
2023-05-14T01:26:32.384Z,95021.38
2023-05-14T01:28:33.958Z,95024.38
2023-05-14T01:30:40.475Z,95025.34
2023-05-14T01:32:41.999Z,95024.22
2023-05-14T01:34:43.455Z,95021.53
2023-05-14T01:36:44.925Z,95026.63
2023-05-14T01:38:47.228Z,95031.56
2023-05-14T01:40:48.723Z,95025.78
2023-05-14T01:42:52.015Z,95025.78
2023-05-14T01:44:53.504Z,95021.00
2023-05-14T01:46:55.062Z,95017.19
2023-05-14T01:48:56.504Z,95017.81
2023-05-14T01:50:57.959Z,95018.97
2023-05-14T01:52:59.502Z,95020.47
2023-05-14T01:55:01.141Z,95016.19
2023-05-14T01:57:02.623Z,95028.25
2023-05-14T01:59:04.155Z,95030.13
2023-05-14T02:01:05.635Z,95025.84
2023-05-14T02:03:07.231Z,95024.56
2023-05-14T02:05:09.097Z,95028.00
2023-05-14T02:07:10.786Z,95027.66
2023-05-14T02:09:12.225Z,95024.34
2023-05-14T02:11:13.693Z,95020.50
2023-05-14T02:13:15.164Z,95027.25
2023-05-14T02:15:16.665Z,95021.66
2023-05-14T02:17:18.259Z,95028.59
2023-05-14T02:19:19.687Z,95029.47
2023-05-14T02:21:21.316Z,95028.31
2023-05-14T02:23:34.164Z,95034.03
2023-05-14T02:25:39.603Z,95038.50
2023-05-14T02:27:41.129Z,95039.31
2023-05-14T02:29:42.629Z,95038.84
2023-05-14T02:31:44.132Z,95042.81
2023-05-14T02:33:45.817Z,95029.19
2023-05-14T02:35:47.255Z,95032.31
2023-05-14T02:37:48.777Z,95043.69
2023-05-14T02:39:50.256Z,95041.56
2023-05-14T02:41:51.728Z,95053.75
2023-05-14T02:43:53.783Z,95053.75
2023-05-14T02:45:55.323Z,95058.50
2023-05-14T02:47:56.902Z,95057.81
2023-05-14T02:49:58.528Z,95063.75
2023-05-14T02:52:00.964Z,95066.22
2023-05-14T02:54:02.391Z,95067.03
2023-05-14T02:56:04.056Z,95074.75
2023-05-14T02:58:05.573Z,95065.72
2023-05-14T03:00:07.529Z,95064.72
2023-05-14T03:02:09.348Z,95059.44
2023-05-14T03:04:11.329Z,95061.75
2023-05-14T03:06:12.784Z,95066.84
2023-05-14T03:08:14.224Z,95060.59
2023-05-14T03:10:15.725Z,95041.16
2023-05-14T03:12:18.160Z,95036.16
2023-05-14T03:14:19.591Z,95033.06
2023-05-14T03:16:21.154Z,95033.38
2023-05-14T03:18:22.878Z,95037.97
2023-05-14T03:20:25.030Z,95036.28
2023-05-14T03:22:26.743Z,95042.69
2023-05-14T03:24:28.206Z,95037.78
2023-05-14T03:26:29.644Z,95041.88
2023-05-14T03:28:31.081Z,95022.41
2023-05-14T03:30:32.544Z,95045.94
2023-05-14T03:32:34.092Z,95051.69
2023-05-14T03:34:35.648Z,95055.81
2023-05-14T03:36:39.007Z,95062.38
2023-05-14T03:38:40.444Z,95060.72
2023-05-14T03:40:41.947Z,95048.91
2023-05-14T03:42:43.470Z,95039.34
2023-05-14T03:44:45.079Z,95040.53
2023-05-14T03:46:46.623Z,95043.16
2023-05-14T03:48:48.232Z,95041.34
2023-05-14T03:50:49.713Z,95048.75
2023-05-14T03:52:52.469Z,95054.66
2023-05-14T03:54:53.971Z,95049.22
2023-05-14T03:56:55.472Z,95051.19
2023-05-14T03:58:56.893Z,95053.34
2023-05-14T04:00:58.375Z,95048.41
2023-05-14T04:02:59.930Z,95045.63
2023-05-14T04:05:01.547Z,95051.84
2023-05-14T04:07:03.102Z,95057.78
2023-05-14T04:09:04.544Z,95061.72
2023-05-14T04:11:06.071Z,95059.75
2023-05-14T04:13:07.731Z,95058.94
2023-05-14T04:15:09.435Z,95064.34
2023-05-14T04:17:11.111Z,95066.66
2023-05-14T04:19:12.685Z,95069.75
2023-05-14T04:21:14.164Z,95079.00
2023-05-14T04:23:16.137Z,95077.34
2023-05-14T04:25:18.614Z,95058.94
2023-05-14T04:27:21.226Z,95075.22
2023-05-14T04:29:22.684Z,95078.97
2023-05-14T04:31:24.185Z,95079.63
2023-05-14T04:33:25.721Z,95084.56
2023-05-14T04:35:27.679Z,95080.78
2023-05-14T04:37:29.213Z,95081.59
2023-05-14T04:39:30.689Z,95088.03
2023-05-14T04:41:32.211Z,95101.84
2023-05-14T04:43:33.741Z,95090.84
2023-05-14T04:45:35.523Z,95094.59
2023-05-14T04:47:37.013Z,95106.13
2023-05-14T04:49:38.492Z,95113.34
2023-05-14T04:51:39.968Z,95114.16
2023-05-14T04:53:41.401Z,95117.13
2023-05-14T04:55:42.864Z,95119.63
2023-05-14T04:57:44.289Z,95127.03
2023-05-14T04:59:45.938Z,95129.00
2023-05-14T05:01:47.549Z,95126.50
2023-05-14T05:03:49.139Z,95133.41
2023-05-14T05:05:50.783Z,95153.66
2023-05-14T05:07:52.272Z,95148.53
2023-05-14T05:09:53.751Z,95151.69
2023-05-14T05:11:55.234Z,95152.03
2023-05-14T05:13:56.692Z,95165.34
2023-05-14T05:15:58.373Z,95163.22
2023-05-14T05:17:59.868Z,95161.53
2023-05-14T05:20:01.459Z,95161.06
2023-05-14T05:22:02.944Z,95169.25
2023-05-14T05:24:04.559Z,95169.59
2023-05-14T05:26:06.055Z,95176.97
2023-05-14T05:28:07.510Z,95173.53
2023-05-14T05:30:09.186Z,95167.28
2023-05-14T05:32:10.778Z,95164.28
2023-05-14T05:34:12.271Z,95162.97
2023-05-14T05:36:13.709Z,95166.09
2023-05-14T05:38:15.713Z,95173.84
2023-05-14T05:40:17.173Z,95174.34
2023-05-14T05:42:18.620Z,95171.88
2023-05-14T05:44:20.142Z,95171.88
2023-05-14T05:46:21.618Z,95180.56
2023-05-14T05:48:23.149Z,95179.59
2023-05-14T05:50:24.897Z,95179.72
2023-05-14T05:52:26.594Z,95178.59
2023-05-14T05:54:28.074Z,95179.22
2023-05-14T05:56:29.520Z,95183.81
2023-05-14T05:58:31.008Z,95184.31
2023-05-14T06:00:32.582Z,95169.19
2023-05-14T06:02:34.159Z,95171.16
2023-05-14T06:04:35.703Z,95168.84
2023-05-14T06:06:37.176Z,95174.91
2023-05-14T06:08:38.638Z,95175.22
2023-05-14T06:10:40.109Z,95168.63
2023-05-14T06:12:41.692Z,95181.59
2023-05-14T06:14:43.145Z,95184.50
2023-05-14T06:16:45.030Z,95186.31
2023-05-14T06:18:47.238Z,95176.13
2023-05-14T06:20:48.705Z,95175.81
2023-05-14T06:22:50.238Z,95180.22
2023-05-14T06:24:51.796Z,95174.31
2023-05-14T06:26:53.240Z,95168.09
2023-05-14T06:28:54.691Z,95171.91
2023-05-14T06:30:56.182Z,95181.56
2023-05-14T06:32:57.672Z,95182.41
2023-05-14T06:34:59.194Z,95189.44
2023-05-14T06:37:02.850Z,95194.88
2023-05-14T06:39:04.457Z,95185.84
2023-05-14T06:41:05.885Z,95182.06
2023-05-14T06:43:07.409Z,95178.16
2023-05-14T06:45:08.965Z,95183.41
2023-05-14T06:47:10.510Z,95191.13
2023-05-14T06:49:13.589Z,95180.78
2023-05-14T06:51:15.122Z,95165.78
2023-05-14T06:53:16.717Z,95171.38
2023-05-14T06:55:18.244Z,95159.41
2023-05-14T06:57:19.681Z,95160.38
2023-05-14T06:59:21.183Z,95155.94
2023-05-14T07:01:22.655Z,95160.25
2023-05-14T07:03:24.138Z,95157.44
2023-05-14T07:05:25.720Z,95158.84
2023-05-14T07:07:27.203Z,95169.03
2023-05-14T07:09:28.737Z,95165.94
2023-05-14T07:11:30.294Z,95163.50
2023-05-14T07:13:31.749Z,95172.06
2023-05-14T07:15:33.235Z,95183.06
2023-05-14T07:17:34.784Z,95195.44
2023-05-14T07:19:36.363Z,95207.28
2023-05-14T07:21:37.830Z,95205.59
2023-05-14T07:23:39.330Z,95198.03
2023-05-14T07:25:40.922Z,95192.91
2023-05-14T07:27:42.379Z,95190.00
2023-05-14T07:29:43.930Z,95194.25
2023-05-14T07:31:45.466Z,95192.63
2023-05-14T07:33:47.000Z,95187.38
2023-05-14T07:35:48.485Z,95185.66
2023-05-14T07:37:49.976Z,95195.16
2023-05-14T07:39:54.235Z,95196.22
2023-05-14T07:41:55.689Z,95201.47
2023-05-14T07:43:57.241Z,95197.94
2023-05-14T07:45:58.735Z,95193.22
2023-05-14T07:48:00.312Z,95196.06
2023-05-14T07:50:02.115Z,95203.97
2023-05-14T07:52:03.635Z,95207.75
2023-05-14T07:54:05.148Z,95207.59
2023-05-14T07:56:06.807Z,95207.97
2023-05-14T07:58:08.283Z,95199.41
2023-05-14T08:00:10.008Z,95206.66
2023-05-14T08:02:12.949Z,95203.56
2023-05-14T08:04:16.352Z,95209.16
2023-05-14T08:06:17.889Z,95208.63
2023-05-14T08:08:19.415Z,95219.94
2023-05-14T08:10:21.214Z,95220.59
2023-05-14T08:12:22.998Z,95214.19
2023-05-14T08:14:24.479Z,95198.75
2023-05-14T08:16:26.276Z,95189.22
2023-05-14T08:18:27.821Z,95178.66
2023-05-14T08:20:32.013Z,95177.66
2023-05-14T08:22:33.508Z,95182.41
2023-05-14T08:24:35.186Z,95189.47
2023-05-14T08:26:37.038Z,95179.97
2023-05-14T08:28:38.466Z,95176.97
2023-05-14T08:30:39.916Z,95177.16
2023-05-14T08:32:42.446Z,95181.63
2023-05-14T08:34:44.181Z,95177.69
2023-05-14T08:36:45.760Z,95177.72
2023-05-14T08:38:48.505Z,95168.53
2023-05-14T08:40:59.784Z,95162.63
2023-05-14T08:43:01.250Z,95159.63
2023-05-14T08:45:03.484Z,95161.41
2023-05-14T08:47:05.007Z,95149.44
2023-05-14T08:49:09.340Z,95146.31
2023-05-14T08:51:10.878Z,95169.78
2023-05-14T08:53:12.301Z,95168.97
2023-05-14T08:55:13.798Z,95157.97
2023-05-14T08:57:15.460Z,95159.97
2023-05-14T08:59:16.935Z,95156.03
2023-05-14T09:01:18.855Z,95153.06
2023-05-14T09:03:20.680Z,95153.44
2023-05-14T09:05:22.196Z,95169.69
2023-05-14T09:07:23.889Z,95163.63
2023-05-14T09:09:25.487Z,95156.84
2023-05-14T09:11:26.932Z,95168.47
2023-05-14T09:13:28.480Z,95158.44
2023-05-14T09:15:29.959Z,95149.75
2023-05-14T09:17:31.514Z,95153.69
2023-05-14T09:19:33.018Z,95155.66
2023-05-14T09:21:34.713Z,95166.66
2023-05-14T09:23:36.319Z,95165.84
2023-05-14T09:25:37.766Z,95164.34
2023-05-14T09:27:39.331Z,95160.56
2023-05-14T09:29:40.805Z,95150.41
2023-05-14T09:31:42.267Z,95136.44
2023-05-14T09:33:43.721Z,95149.28
2023-05-14T09:35:45.297Z,95149.13
2023-05-14T09:37:47.586Z,95152.59
2023-05-14T09:39:49.068Z,95140.47
2023-05-14T09:41:51.880Z,95139.31
2023-05-14T09:43:53.422Z,95137.34
2023-05-14T09:45:54.915Z,95133.56
2023-05-14T09:47:56.529Z,95128.63
2023-05-14T09:49:58.348Z,95126.81
2023-05-14T09:52:00.124Z,95130.09
2023-05-14T09:54:01.596Z,95126.31
2023-05-14T09:56:03.709Z,95129.78
2023-05-14T09:58:05.977Z,95135.03
2023-05-14T10:00:08.861Z,95131.75
2023-05-14T10:02:37.868Z,95130.28
2023-05-14T10:04:39.602Z,95119.91
2023-05-14T10:06:42.533Z,95111.34
2023-05-14T10:08:44.624Z,95099.34
2023-05-14T10:10:46.078Z,95103.78
2023-05-14T10:12:56.857Z,95108.22
2023-05-14T10:14:58.371Z,95101.00
2023-05-14T10:16:59.871Z,95093.41
2023-05-14T10:19:03.395Z,95080.78
2023-05-14T10:21:05.807Z,95078.16
2023-05-14T10:23:10.434Z,95072.41
2023-05-14T10:25:12.086Z,95086.22
2023-05-14T10:27:13.544Z,95103.78
2023-05-14T10:29:15.024Z,95111.19
2023-05-14T10:31:17.405Z,95102.28
2023-05-14T10:33:19.162Z,95110.19
2023-05-14T10:35:22.868Z,95104.94
2023-05-14T10:37:27.333Z,95087.69
2023-05-14T10:39:41.432Z,95094.75
2023-05-14T10:41:42.858Z,95101.81
2023-05-14T10:43:44.466Z,95093.78
2023-05-14T10:45:46.146Z,95086.06
2023-05-14T10:47:47.671Z,95086.28
2023-05-14T10:49:49.572Z,95097.78
2023-05-14T10:51:52.868Z,95095.50
2023-05-14T10:53:54.354Z,95101.09
2023-05-14T10:55:55.778Z,95093.53
2023-05-14T10:57:58.656Z,95073.72
2023-05-14T11:00:00.552Z,95071.72
2023-05-14T11:02:05.085Z,95082.09
2023-05-14T11:04:06.677Z,95084.06
2023-05-14T11:06:09.121Z,95081.22
2023-05-14T11:08:10.618Z,95090.91
2023-05-14T11:10:15.739Z,95105.59
2023-05-14T11:12:17.392Z,95096.19
2023-05-14T11:14:19.494Z,95090.13
2023-05-14T11:16:23.959Z,95084.13
2023-05-14T11:18:29.209Z,95096.81
2023-05-14T11:20:32.793Z,95094.28
2023-05-14T11:22:34.728Z,95103.78
2023-05-14T11:24:36.166Z,95103.56
2023-05-14T11:26:37.779Z,95089.50
2023-05-14T11:28:39.397Z,95079.22
2023-05-14T11:30:40.996Z,95083.53
2023-05-14T11:32:43.249Z,95074.88
2023-05-14T11:34:45.002Z,95079.56
2023-05-14T11:36:46.621Z,95084.22
2023-05-14T11:38:49.110Z,95086.03
2023-05-14T11:40:57.434Z,95085.84
2023-05-14T11:42:58.962Z,95086.66
2023-05-14T11:45:01.362Z,95066.84
2023-05-14T11:47:05.000Z,95061.63
2023-05-14T11:49:09.647Z,95071.44
2023-05-14T11:51:11.142Z,95071.94
2023-05-14T11:53:16.152Z,95070.25
2023-05-14T11:55:17.878Z,95073.03
2023-05-14T11:57:19.812Z,95066.28
2023-05-14T11:59:21.537Z,95069.25
2023-05-14T12:01:23.167Z,95059.81
2023-05-14T12:03:29.705Z,95057.63
2023-05-14T12:05:31.627Z,95060.00
2023-05-14T12:07:33.201Z,95057.88
2023-05-14T12:09:36.405Z,95051.84
2023-05-14T12:11:37.976Z,95041.19
2023-05-14T12:13:39.555Z,95040.19
2023-05-14T12:15:41.214Z,95038.06
2023-05-14T12:17:42.758Z,95025.25
2023-05-14T12:19:44.776Z,95023.63
2023-05-14T12:21:47.398Z,95018.16
2023-05-14T12:23:48.907Z,95008.47
2023-05-14T12:25:51.352Z,95011.78
2023-05-14T12:27:52.776Z,94999.63
2023-05-14T12:30:12.878Z,95003.25
2023-05-14T12:32:21.984Z,95008.63
2023-05-14T12:34:23.499Z,95012.06
2023-05-14T12:36:24.961Z,95002.84
2023-05-14T12:38:26.393Z,95008.94
2023-05-14T12:40:27.955Z,95010.56
2023-05-14T12:42:29.401Z,94994.31
2023-05-14T12:44:31.328Z,94996.41
2023-05-14T12:46:33.117Z,94989.50
2023-05-14T12:48:34.655Z,94997.38
2023-05-14T12:50:36.164Z,95001.81
2023-05-14T12:52:39.694Z,94996.63
2023-05-14T12:54:43.504Z,94994.78
2023-05-14T12:56:45.040Z,95008.34
2023-05-14T12:58:46.995Z,94995.69
2023-05-14T13:00:48.456Z,95013.09
2023-05-14T13:02:49.977Z,94996.66
2023-05-14T13:04:51.499Z,94996.66
2023-05-14T13:06:52.982Z,94997.97
2023-05-14T13:08:54.462Z,94999.78
2023-05-14T13:10:56.291Z,95002.06
2023-05-14T13:12:58.260Z,94993.03
2023-05-14T13:14:59.764Z,94983.84
2023-05-14T13:17:01.341Z,94993.03
2023-05-14T13:19:02.885Z,94978.75
2023-05-14T13:21:06.443Z,94986.47
2023-05-14T13:23:07.966Z,94970.56
2023-05-14T13:25:09.805Z,94972.53
2023-05-14T13:27:11.558Z,94966.78
2023-05-14T13:29:13.100Z,94970.53
2023-05-14T13:31:14.928Z,94981.38
2023-05-14T13:33:16.437Z,94970.19
2023-05-14T13:35:17.984Z,94960.66
2023-05-14T13:37:19.732Z,94954.09
2023-05-14T13:39:22.784Z,94964.09
2023-05-14T13:41:26.226Z,94944.84
2023-05-14T13:43:28.557Z,94952.41
2023-05-14T13:45:30.017Z,94943.38
2023-05-14T13:47:31.603Z,94944.00
2023-05-14T13:49:33.139Z,94951.88
2023-05-14T13:51:34.801Z,94928.88
2023-05-14T13:53:36.274Z,94945.66
2023-05-14T13:55:37.789Z,94956.03
2023-05-14T13:57:39.844Z,94947.78
2023-05-14T13:59:41.537Z,94960.59
2023-05-14T14:01:43.419Z,94958.66
2023-05-14T14:03:44.938Z,94964.44
2023-05-14T14:05:46.450Z,94967.91
2023-05-14T14:07:49.720Z,94967.59
2023-05-14T14:09:51.906Z,94962.66
2023-05-14T14:11:53.451Z,94963.81
2023-05-14T14:13:54.950Z,94957.59
2023-05-14T14:15:56.901Z,94956.25
2023-05-14T14:17:58.486Z,94946.72
2023-05-14T14:19:59.999Z,94937.22
2023-05-14T14:22:01.484Z,94942.47
2023-05-14T14:24:02.979Z,94942.28
2023-05-14T14:26:04.463Z,94938.84
2023-05-14T14:28:05.934Z,94942.28
2023-05-14T14:30:16.994Z,94943.94
2023-05-14T14:32:18.470Z,94927.19
2023-05-14T14:34:19.953Z,94937.84
2023-05-14T14:36:21.452Z,94944.44
2023-05-14T14:38:22.847Z,94930.97
2023-05-14T14:40:24.590Z,94941.34
2023-05-14T14:42:26.490Z,94935.88
2023-05-14T14:44:27.964Z,94935.72
2023-05-14T14:46:29.446Z,94945.94
2023-05-14T14:48:37.484Z,94941.81
2023-05-14T14:50:38.932Z,94952.31
2023-05-14T14:52:40.926Z,94945.75
2023-05-14T14:54:42.875Z,94947.56
2023-05-14T14:56:45.927Z,94949.03
2023-05-14T14:58:47.448Z,94945.25
2023-05-14T15:00:51.253Z,94941.97
2023-05-14T15:02:52.825Z,94943.13
2023-05-14T15:04:54.860Z,94934.88
2023-05-14T15:06:56.423Z,94935.84
2023-05-14T15:08:57.882Z,94937.84
2023-05-14T15:10:59.566Z,94934.25
2023-05-14T15:13:00.966Z,94932.44
2023-05-14T15:15:02.443Z,94936.72
2023-05-14T15:17:04.050Z,94940.66
2023-05-14T15:19:05.714Z,94937.22
2023-05-14T15:21:07.273Z,94939.81
2023-05-14T15:23:08.795Z,94940.34
2023-05-14T15:25:10.495Z,94934.25
2023-05-14T15:27:12.015Z,94934.06
2023-05-14T15:29:13.466Z,94922.25
2023-05-14T15:31:14.914Z,94936.72
2023-05-14T15:33:19.638Z,94925.88
2023-05-14T15:35:21.278Z,94931.13
2023-05-14T15:37:23.886Z,94929.47
2023-05-14T15:39:25.341Z,94932.44
2023-05-14T15:41:28.780Z,94936.22
2023-05-14T15:43:30.303Z,94930.63
2023-05-14T15:45:31.825Z,94930.13
2023-05-14T15:47:33.588Z,94929.66
2023-05-14T15:49:35.118Z,94936.38
2023-05-14T15:51:36.636Z,94939.84
2023-05-14T15:53:38.155Z,94929.16
2023-05-14T15:55:39.714Z,94925.53
2023-05-14T15:57:41.164Z,94928.66
2023-05-14T15:59:42.768Z,94933.25
2023-05-14T16:01:44.593Z,94917.16
2023-05-14T16:03:46.281Z,94919.63
2023-05-14T16:05:48.592Z,94926.69
2023-05-14T16:07:50.026Z,94921.25
2023-05-14T16:09:51.821Z,94928.66
2023-05-14T16:11:53.346Z,94923.25
2023-05-14T16:13:54.796Z,94925.34
2023-05-14T16:15:56.438Z,94921.25
2023-05-14T16:17:58.027Z,94925.19
2023-05-14T16:20:00.040Z,94919.31
2023-05-14T16:22:01.472Z,94927.69
2023-05-14T16:24:03.302Z,94910.94
2023-05-14T16:26:05.572Z,94914.88
2023-05-14T16:28:08.020Z,94917.19
2023-05-14T16:30:09.704Z,94926.66
2023-05-14T16:32:11.199Z,94929.00
2023-05-14T16:34:12.679Z,94930.78
2023-05-14T16:36:14.120Z,94907.81
2023-05-14T16:38:15.537Z,94907.47
2023-05-14T16:40:17.904Z,94914.84
2023-05-14T16:42:19.412Z,94916.34
2023-05-14T16:44:20.995Z,94921.78
2023-05-14T16:46:22.528Z,94916.81
2023-05-14T16:48:24.102Z,94916.63
2023-05-14T16:50:25.660Z,94911.38
2023-05-14T16:52:27.133Z,94904.19
2023-05-14T16:54:28.768Z,94902.38
2023-05-14T16:56:32.398Z,94887.44
2023-05-14T16:58:33.898Z,94886.00
2023-05-14T17:00:35.441Z,94892.56
2023-05-14T17:02:36.916Z,94884.69
2023-05-14T17:04:42.046Z,94878.78
2023-05-14T17:06:43.714Z,94862.69
2023-05-14T17:08:45.192Z,94862.50
2023-05-14T17:10:46.652Z,94871.38
2023-05-14T17:12:48.125Z,94868.56
2023-05-14T17:14:49.576Z,94859.19
2023-05-14T17:16:51.044Z,94860.34
2023-05-14T17:18:52.559Z,94863.63
2023-05-14T17:20:54.064Z,94865.00
2023-05-14T17:22:55.543Z,94856.13
2023-05-14T17:24:57.011Z,94857.59
2023-05-14T17:26:58.435Z,94854.16
2023-05-14T17:28:59.958Z,94853.16
2023-05-14T17:31:02.131Z,94845.59
2023-05-14T17:33:03.842Z,94839.19
2023-05-14T17:35:05.772Z,94844.63
2023-05-14T17:37:07.313Z,94835.41
2023-05-14T17:39:09.196Z,94845.91
2023-05-14T17:41:10.747Z,94847.41
2023-05-14T17:43:12.226Z,94849.69
2023-05-14T17:45:14.529Z,94831.44
2023-05-14T17:47:16.092Z,94843.94
2023-05-14T17:49:17.640Z,94844.44
2023-05-14T17:51:19.092Z,94851.50
2023-05-14T17:53:20.566Z,94859.72
2023-05-14T17:55:22.206Z,94849.03
2023-05-14T17:57:23.979Z,94843.28
2023-05-14T17:59:25.605Z,94838.53
2023-05-14T18:01:27.088Z,94842.66
2023-05-14T18:03:28.763Z,94833.97
2023-05-14T18:05:31.763Z,94857.28
2023-05-14T18:07:33.276Z,94841.84
2023-05-14T18:09:34.777Z,94863.16
2023-05-14T18:11:36.287Z,94871.06
2023-05-14T18:13:37.776Z,94882.88
2023-05-14T18:15:39.347Z,94876.97
2023-05-14T18:17:40.916Z,94873.50
2023-05-14T18:19:42.858Z,94860.88
2023-05-14T18:21:46.679Z,94855.94
2023-05-14T18:23:48.383Z,94852.81
2023-05-14T18:25:50.113Z,94851.19
2023-05-14T18:27:51.600Z,94828.22
2023-05-14T18:29:53.385Z,94835.28
2023-05-14T18:31:54.847Z,94833.63
2023-05-14T18:33:56.311Z,94840.38
2023-05-14T18:35:57.848Z,94842.50
2023-05-14T18:37:59.539Z,94838.38
2023-05-14T18:40:01.405Z,94841.69
2023-05-14T18:42:03.132Z,94837.91
2023-05-14T18:44:04.635Z,94839.22
2023-05-14T18:46:06.191Z,94841.69
2023-05-14T18:48:07.716Z,94846.09
2023-05-14T18:50:09.322Z,94855.94
2023-05-14T18:52:10.835Z,94860.69
2023-05-14T18:54:12.281Z,94858.56
2023-05-14T18:56:13.903Z,94859.38
2023-05-14T18:58:15.395Z,94864.81
2023-05-14T19:00:16.984Z,94868.72
2023-05-14T19:02:18.651Z,94862.50
2023-05-14T19:04:20.171Z,94874.84
2023-05-14T19:06:21.680Z,94864.31
2023-05-14T19:08:23.292Z,94869.22
2023-05-14T19:10:24.727Z,94867.88
2023-05-14T19:12:26.807Z,94870.78
2023-05-14T19:14:28.273Z,94867.84
2023-05-14T19:16:30.524Z,94867.38
2023-05-14T19:18:32.079Z,94874.16
2023-05-14T19:20:33.593Z,94875.25
2023-05-14T19:22:35.046Z,94873.75
2023-05-14T19:24:37.780Z,94876.63
2023-05-14T19:26:39.246Z,94878.53
2023-05-14T19:28:40.773Z,94878.50
2023-05-14T19:30:42.235Z,94880.44
2023-05-14T19:32:43.743Z,94888.41
2023-05-14T19:34:45.221Z,94899.91
2023-05-14T19:36:46.670Z,94898.84
2023-05-14T19:38:48.295Z,94898.94
2023-05-14T19:40:51.142Z,94893.25
2023-05-14T19:42:53.165Z,94891.63
2023-05-14T19:44:55.890Z,94868.84
2023-05-14T19:46:57.747Z,94867.72
2023-05-14T19:48:59.308Z,94860.00
2023-05-14T19:51:00.723Z,94855.97
2023-05-14T19:53:02.318Z,94861.03
2023-05-14T19:55:03.884Z,94859.34
2023-05-14T19:57:05.782Z,94861.38
2023-05-14T19:59:07.265Z,94856.78
2023-05-14T20:01:09.347Z,94855.47
2023-05-14T20:03:10.969Z,94867.94
2023-05-14T20:05:12.481Z,94866.44
2023-05-14T20:07:15.619Z,94863.00
2023-05-14T20:09:17.255Z,94858.88
2023-05-14T20:11:19.615Z,94859.38
2023-05-14T20:13:23.125Z,94833.94
2023-05-14T20:15:26.433Z,94841.00
2023-05-14T20:17:27.967Z,94832.47
2023-05-14T20:19:29.510Z,94853.00
2023-05-14T20:21:31.644Z,94859.41
2023-05-14T20:23:33.735Z,94857.25
2023-05-14T20:25:35.325Z,94856.94
2023-05-14T20:27:37.032Z,94851.53
2023-05-14T20:29:38.552Z,94848.06
2023-05-14T20:31:40.109Z,94853.47
2023-05-14T20:33:41.616Z,94857.91
2023-05-14T20:35:44.176Z,94854.13
2023-05-14T20:37:45.818Z,94851.16
2023-05-14T20:39:47.365Z,94843.94
2023-05-14T20:41:48.851Z,94857.06
2023-05-14T20:43:50.506Z,94857.06
2023-05-14T20:45:52.055Z,94842.97
2023-05-14T20:47:53.594Z,94843.94
2023-05-14T20:49:55.156Z,94834.94
2023-05-14T20:51:56.579Z,94830.50
2023-05-14T20:53:58.110Z,94829.53
2023-05-14T20:56:01.325Z,94827.22
2023-05-14T20:58:02.774Z,94813.75
2023-05-14T21:00:08.093Z,94817.69
2023-05-14T21:02:09.912Z,94819.31
2023-05-14T21:04:11.692Z,94822.25
2023-05-14T21:06:13.389Z,94822.91
2023-05-14T21:08:15.074Z,94832.09
2023-05-14T21:10:17.072Z,94838.03
2023-05-14T21:12:19.208Z,94846.56
2023-05-14T21:14:20.858Z,94843.94
2023-05-14T21:16:22.474Z,94853.13
2023-05-14T21:18:27.010Z,94846.06
2023-05-14T21:20:28.577Z,94826.84
2023-05-14T21:22:29.979Z,94827.69
2023-05-14T21:24:31.404Z,94817.34
2023-05-14T21:26:32.928Z,94822.75
2023-05-14T21:28:34.376Z,94829.97
2023-05-14T21:30:35.831Z,94832.97
2023-05-14T21:32:37.279Z,94833.78
2023-05-14T21:34:38.786Z,94826.88
2023-05-14T21:36:40.318Z,94822.25
2023-05-14T21:38:41.800Z,94816.84
2023-05-14T21:40:43.309Z,94809.63
2023-05-14T21:42:44.762Z,94801.75
2023-05-14T21:44:46.387Z,94797.94
2023-05-14T21:46:47.919Z,94809.31
2023-05-14T21:48:49.412Z,94799.44
2023-05-14T21:50:50.911Z,94806.16
2023-05-14T21:52:52.428Z,94806.16
2023-05-14T21:54:53.863Z,94800.91
2023-05-14T21:56:55.288Z,94808.16
2023-05-14T21:58:57.151Z,94793.69
2023-05-14T22:00:58.674Z,94797.13
2023-05-14T22:03:00.206Z,94796.16
2023-05-14T22:05:01.875Z,94785.66
2023-05-14T22:07:03.587Z,94782.53
2023-05-14T22:09:05.477Z,94792.22
2023-05-14T22:11:06.945Z,94798.00
2023-05-14T22:13:08.404Z,94795.69
2023-05-14T22:15:10.132Z,94801.13
2023-05-14T22:17:12.748Z,94795.06
2023-05-14T22:19:15.919Z,94791.78
2023-05-14T22:21:17.447Z,94788.34
2023-05-14T22:23:18.952Z,94788.16
2023-05-14T22:25:20.531Z,94788.50
2023-05-14T22:27:23.023Z,94790.28
2023-05-14T22:29:24.689Z,94788.31
2023-05-14T22:31:26.135Z,94786.03
2023-05-14T22:33:27.649Z,94783.09
2023-05-14T22:35:29.134Z,94776.69
2023-05-14T22:37:30.819Z,94771.44
2023-05-14T22:39:32.272Z,94774.88
2023-05-14T22:41:33.747Z,94774.88
2023-05-14T22:43:35.214Z,94770.78
2023-05-14T22:45:36.722Z,94773.06
2023-05-14T22:47:38.527Z,94762.91
2023-05-14T22:49:40.476Z,94761.75
2023-05-14T22:51:42.411Z,94758.31
2023-05-14T22:53:43.901Z,94746.81
2023-05-14T22:55:45.634Z,94741.56
2023-05-14T22:57:47.080Z,94740.09
2023-05-14T22:59:49.008Z,94751.25
2023-05-14T23:01:50.972Z,94761.91
2023-05-14T23:03:52.553Z,94755.69
2023-05-14T23:05:54.015Z,94754.38
2023-05-14T23:07:55.536Z,94762.06
2023-05-14T23:09:57.022Z,94757.31
2023-05-14T23:11:58.530Z,94754.84
2023-05-14T23:13:59.988Z,94756.50
2023-05-14T23:16:01.589Z,94738.94
2023-05-14T23:18:03.137Z,94739.59
2023-05-14T23:20:10.540Z,94735.00
2023-05-14T23:22:12.587Z,94724.69
2023-05-14T23:24:14.098Z,94745.19
2023-05-14T23:26:15.710Z,94733.69
2023-05-14T23:28:17.302Z,94730.56
2023-05-14T23:30:18.802Z,94722.53
2023-05-14T23:32:20.423Z,94721.03
2023-05-14T23:34:22.243Z,94713.97
2023-05-14T23:36:23.976Z,94708.22
2023-05-14T23:38:25.499Z,94702.59
2023-05-14T23:40:26.961Z,94696.22
2023-05-14T23:42:28.513Z,94673.56
2023-05-14T23:44:29.970Z,94682.09
2023-05-14T23:46:31.632Z,94673.03
2023-05-14T23:48:33.248Z,94662.72
2023-05-14T23:50:34.862Z,94654.19
2023-05-14T23:52:36.394Z,94647.44